createdAt,value
2022-08-21T00:01:33.963Z,101005.69
2022-08-21T00:04:05.861Z,101002.16
2022-08-21T00:06:33.869Z,100991.63
2022-08-21T00:09:06.054Z,100984.59
2022-08-21T00:11:33.418Z,100995.97
2022-08-21T00:14:00.061Z,100996.84
2022-08-21T00:16:26.604Z,100998.59
2022-08-21T00:18:53.038Z,100995.97
2022-08-21T00:21:19.520Z,100994.22
2022-08-21T00:23:45.970Z,100999.53
2022-08-21T00:26:12.446Z,100996.03
2022-08-21T00:28:38.950Z,100998.66
2022-08-21T00:31:05.592Z,101001.25
2022-08-21T00:33:32.434Z,101000.38
2022-08-21T00:35:58.904Z,101005.63
2022-08-21T00:38:25.344Z,101008.25
2022-08-21T00:40:57.707Z,101007.38
2022-08-21T00:43:30.781Z,101008.31
2022-08-21T00:45:58.073Z,100997.75
2022-08-21T00:48:25.771Z,100998.66
2022-08-21T00:51:03.846Z,100996.03
2022-08-21T00:53:31.629Z,101001.25
2022-08-21T00:55:59.182Z,101000.38
2022-08-21T00:58:27.460Z,100998.59
2022-08-21T01:00:54.331Z,100995.09
2022-08-21T01:03:23.877Z,100991.59
2022-08-21T01:05:50.826Z,100981.06
2022-08-21T01:08:18.343Z,100981.03
2022-08-21T01:10:45.282Z,100981.94
2022-08-21T01:13:12.840Z,100972.25
2022-08-21T01:15:42.018Z,100977.53
2022-08-21T01:18:10.165Z,100979.28
2022-08-21T01:20:37.205Z,100976.66
2022-08-21T01:23:05.556Z,100986.31
2022-08-21T01:25:33.938Z,100981.94
2022-08-21T01:28:03.654Z,100980.16
2022-08-21T01:30:30.116Z,100982.81
2022-08-21T01:32:56.951Z,100984.56
2022-08-21T01:35:23.525Z,100989.81
2022-08-21T01:37:49.995Z,100986.31
2022-08-21T01:40:17.625Z,100984.56
2022-08-21T01:42:45.098Z,100988.06
2022-08-21T01:45:12.030Z,100987.22
2022-08-21T01:47:38.721Z,100986.34
2022-08-21T01:50:11.108Z,100987.19
2022-08-21T01:52:37.548Z,100984.56
2022-08-21T01:55:06.720Z,100982.78
2022-08-21T01:57:33.875Z,100987.19
2022-08-21T02:00:00.322Z,100985.44
2022-08-21T02:02:26.780Z,100974.91
2022-08-21T02:04:53.243Z,100972.25
2022-08-21T02:07:19.707Z,100973.16
2022-08-21T02:09:46.154Z,100967.00
2022-08-21T02:12:13.325Z,100980.16
2022-08-21T02:14:39.781Z,100981.94
2022-08-21T02:17:09.297Z,100979.25
2022-08-21T02:19:40.060Z,100980.16
2022-08-21T02:22:07.130Z,100980.16
2022-08-21T02:24:33.901Z,100981.03
2022-08-21T02:27:00.351Z,100977.50
2022-08-21T02:29:26.794Z,100972.25
2022-08-21T02:31:54.002Z,100959.94
2022-08-21T02:34:20.444Z,100966.97
2022-08-21T02:36:46.894Z,100966.09
2022-08-21T02:39:27.345Z,100959.97
2022-08-21T02:41:54.294Z,100976.63
2022-08-21T02:44:20.892Z,100971.34
2022-08-21T02:46:56.677Z,100972.22
2022-08-21T02:49:23.140Z,100975.75
2022-08-21T02:51:49.587Z,100970.47
2022-08-21T02:54:16.025Z,100977.50
2022-08-21T02:56:42.555Z,100968.69
2022-08-21T02:59:08.976Z,100968.69
2022-08-21T03:01:35.451Z,100967.81
2022-08-21T03:04:01.937Z,100970.44
2022-08-21T03:06:30.291Z,100970.41
2022-08-21T03:08:56.739Z,100963.38
2022-08-21T03:11:23.371Z,100959.00
2022-08-21T03:13:49.805Z,100972.09
2022-08-21T03:16:16.298Z,100968.56
2022-08-21T03:18:42.764Z,100974.72
2022-08-21T03:21:09.344Z,100966.78
2022-08-21T03:23:36.018Z,100974.66
2022-08-21T03:26:02.537Z,100973.78
2022-08-21T03:28:29.150Z,100980.75
2022-08-21T03:30:55.721Z,100979.88
2022-08-21T03:33:23.300Z,100975.47
2022-08-21T03:35:56.887Z,100979.00
2022-08-21T03:38:26.428Z,100981.63
2022-08-21T03:40:53.845Z,100975.47
2022-08-21T03:43:20.315Z,100971.97
2022-08-21T03:45:46.865Z,100980.72
2022-08-21T03:48:13.787Z,100984.25
2022-08-21T03:50:42.427Z,100973.69
2022-08-21T03:53:16.774Z,100978.06
2022-08-21T03:55:45.213Z,100975.44
2022-08-21T03:58:16.674Z,100973.66
2022-08-21T04:00:44.482Z,100978.06
2022-08-21T04:03:10.921Z,100978.91
2022-08-21T04:05:38.444Z,100980.66
2022-08-21T04:08:06.331Z,100979.75
2022-08-21T04:10:35.481Z,100987.63
2022-08-21T04:13:01.910Z,100982.34
2022-08-21T04:15:28.371Z,100978.84
2022-08-21T04:17:55.692Z,100989.34
2022-08-21T04:20:22.701Z,100987.53
2022-08-21T04:22:51.664Z,100992.78
2022-08-21T04:25:19.961Z,100987.53
2022-08-21T04:27:46.760Z,100991.88
2022-08-21T04:30:14.436Z,100990.13
2022-08-21T04:32:44.885Z,100990.09
2022-08-21T04:35:11.862Z,100991.81
2022-08-21T04:37:42.143Z,100998.78
2022-08-21T04:40:11.173Z,100990.88
2022-08-21T04:42:50.917Z,100995.25
2022-08-21T04:45:25.074Z,100993.47
2022-08-21T04:47:53.577Z,100994.31
2022-08-21T04:50:21.414Z,100996.06
2022-08-21T04:52:48.194Z,101010.06
2022-08-21T04:55:15.424Z,101009.19
2022-08-21T04:57:48.434Z,101011.78
2022-08-21T05:00:19.503Z,101010.03
2022-08-21T05:02:48.633Z,101017.94
2022-08-21T05:05:16.377Z,101010.94
2022-08-21T05:07:44.685Z,101023.19
2022-08-21T05:10:12.391Z,101017.06
2022-08-21T05:12:42.676Z,101021.47
2022-08-21T05:15:13.128Z,101023.22
2022-08-21T05:17:41.053Z,101024.97
2022-08-21T05:20:08.550Z,101027.66
2022-08-21T05:22:35.026Z,101019.78
2022-08-21T05:25:01.540Z,101030.31
2022-08-21T05:27:30.654Z,101019.81
2022-08-21T05:29:58.169Z,101029.44
2022-08-21T05:32:25.255Z,101026.00
2022-08-21T05:34:51.900Z,101039.16
2022-08-21T05:37:18.327Z,101038.25
2022-08-21T05:40:04.696Z,101036.53
2022-08-21T05:42:31.513Z,101035.66
2022-08-21T05:44:57.969Z,101031.31
2022-08-21T05:47:25.720Z,101039.22
2022-08-21T05:49:52.155Z,101036.63
2022-08-21T05:52:22.131Z,101038.41
2022-08-21T05:54:49.014Z,101033.19
2022-08-21T05:57:15.475Z,101024.44
2022-08-21T05:59:41.963Z,101026.19
2022-08-21T06:02:09.222Z,101030.59
2022-08-21T06:04:39.657Z,101023.63
2022-08-21T06:07:06.910Z,101035.03
2022-08-21T06:09:33.589Z,101039.41
2022-08-21T06:12:05.357Z,101035.91
2022-08-21T06:14:31.857Z,101033.28
2022-08-21T06:17:16.640Z,101031.59
2022-08-21T06:19:43.078Z,101034.22
2022-08-21T06:22:12.602Z,101035.13
2022-08-21T06:24:39.111Z,101033.41
2022-08-21T06:27:09.482Z,101031.69
2022-08-21T06:29:44.344Z,101031.69
2022-08-21T06:32:12.676Z,101031.75
2022-08-21T06:34:40.382Z,101033.53
2022-08-21T06:37:06.843Z,101026.56
2022-08-21T06:39:33.673Z,101037.09
2022-08-21T06:42:00.697Z,101031.00
2022-08-21T06:44:27.678Z,101031.88
2022-08-21T06:46:54.100Z,101032.75
2022-08-21T06:49:21.724Z,101032.78
2022-08-21T06:51:48.460Z,101037.19
2022-08-21T06:54:15.017Z,101035.47
2022-08-21T06:56:41.496Z,101038.97
2022-08-21T06:59:07.935Z,101039.84
2022-08-21T07:01:34.405Z,101032.84
2022-08-21T07:04:00.909Z,101035.50
2022-08-21T07:06:27.363Z,101033.75
2022-08-21T07:08:55.572Z,101033.75
2022-08-21T07:11:26.121Z,101025.91
2022-08-21T07:13:55.012Z,101022.38
2022-08-21T07:16:22.296Z,101022.34
2022-08-21T07:18:49.366Z,101017.09
2022-08-21T07:21:16.437Z,101020.59
2022-08-21T07:23:46.079Z,101018.88
2022-08-21T07:26:13.810Z,101014.47
2022-08-21T07:28:40.261Z,101019.72
2022-08-21T07:31:07.399Z,101013.56
2022-08-21T07:33:35.004Z,101010.91
2022-08-21T07:36:02.079Z,101002.13
2022-08-21T07:38:28.510Z,101003.00
2022-08-21T07:40:56.905Z,101003.00
2022-08-21T07:43:23.419Z,100993.28
2022-08-21T07:45:52.732Z,101006.47
2022-08-21T07:48:19.172Z,101000.34
2022-08-21T07:50:45.629Z,101000.31
2022-08-21T07:53:12.062Z,100996.78
2022-08-21T07:55:38.756Z,100998.56
2022-08-21T07:58:05.262Z,100998.53
2022-08-21T08:00:32.020Z,100996.75
2022-08-21T08:02:58.686Z,100997.63
2022-08-21T08:05:29.496Z,100993.22
2022-08-21T08:07:56.104Z,100994.97
2022-08-21T08:10:23.539Z,101001.97
2022-08-21T08:12:52.142Z,100999.31
2022-08-21T08:15:21.281Z,100996.66
2022-08-21T08:17:49.188Z,101002.78
2022-08-21T08:20:17.029Z,100999.25
2022-08-21T08:22:43.783Z,100996.56
2022-08-21T08:25:17.607Z,100992.16
2022-08-21T08:27:44.073Z,100993.00
2022-08-21T08:30:13.700Z,100988.53
2022-08-21T08:32:40.761Z,100985.91
2022-08-21T08:35:08.390Z,100983.22
2022-08-21T08:37:38.638Z,100984.09
2022-08-21T08:40:12.513Z,100984.06
2022-08-21T08:42:39.036Z,100982.22
2022-08-21T08:45:05.459Z,100976.91
2022-08-21T08:47:34.471Z,100982.13
2022-08-21T08:50:05.970Z,100975.97
2022-08-21T08:52:45.756Z,100978.53
2022-08-21T08:55:26.685Z,100978.47
2022-08-21T08:57:54.438Z,100965.22
2022-08-21T09:00:21.861Z,100971.31
2022-08-21T09:02:48.285Z,100967.78
2022-08-21T09:05:26.124Z,100963.31
2022-08-21T09:08:19.038Z,100962.41
2022-08-21T09:11:07.329Z,100967.66
2022-08-21T09:13:51.470Z,100960.50
2022-08-21T09:16:36.559Z,100960.41
2022-08-21T09:19:10.646Z,100958.63
2022-08-21T09:21:43.735Z,100960.41
2022-08-21T09:24:27.760Z,100962.09
2022-08-21T09:27:18.498Z,100955.84
2022-08-21T09:29:48.620Z,100954.88
2022-08-21T09:32:20.296Z,100960.16
2022-08-21T09:35:07.870Z,100959.22
2022-08-21T09:37:45.498Z,100960.91
2022-08-21T09:40:23.290Z,100959.97
2022-08-21T09:43:01.661Z,100960.88
2022-08-21T09:45:29.074Z,100962.66
2022-08-21T09:48:11.885Z,100960.00
2022-08-21T09:50:38.566Z,100955.44
2022-08-21T09:53:05.651Z,100945.63
2022-08-21T09:55:58.990Z,100946.47
2022-08-21T09:58:33.516Z,100948.13
2022-08-21T10:01:02.223Z,100940.06
2022-08-21T10:03:28.782Z,100938.25
2022-08-21T10:06:02.911Z,100936.38
2022-08-21T10:08:30.499Z,100938.09
2022-08-21T10:11:13.059Z,100937.00
2022-08-21T10:14:10.872Z,100935.03
2022-08-21T10:16:52.417Z,100927.88
2022-08-21T10:19:40.332Z,100929.59
2022-08-21T10:22:36.107Z,100938.38
2022-08-21T10:26:13.784Z,100929.41
2022-08-21T10:28:52.409Z,100933.72
2022-08-21T10:31:37.872Z,100929.19
2022-08-21T10:34:29.932Z,100926.47
2022-08-21T10:37:45.507Z,100919.25
2022-08-21T10:40:51.076Z,100923.53
2022-08-21T10:43:36.572Z,100915.25
2022-08-21T10:46:17.651Z,100918.63
2022-08-21T10:49:00.603Z,100911.41
2022-08-21T10:51:39.553Z,100912.03
2022-08-21T10:54:44.077Z,100911.19
2022-08-21T10:57:17.442Z,100917.09
2022-08-21T11:00:05.949Z,100909.97
2022-08-21T11:02:37.575Z,100911.63
2022-08-21T11:05:11.809Z,100912.38
2022-08-21T11:08:01.045Z,100911.56
2022-08-21T11:10:34.834Z,100903.50
2022-08-21T11:13:04.374Z,100907.06
2022-08-21T11:15:36.050Z,100905.25
2022-08-21T11:18:11.117Z,100909.72
2022-08-21T11:20:43.913Z,100912.16
2022-08-21T11:23:32.985Z,100903.25
2022-08-21T11:26:05.477Z,100912.03
2022-08-21T11:28:35.945Z,100910.19
2022-08-21T11:31:28.817Z,100911.81
2022-08-21T11:34:02.336Z,100907.25
2022-08-21T11:36:37.524Z,100908.00
2022-08-21T11:39:06.842Z,100900.81
2022-08-21T11:41:40.017Z,100906.00
2022-08-21T11:44:24.483Z,100898.69
2022-08-21T11:47:27.109Z,100904.06
2022-08-21T11:50:35.823Z,100891.75
2022-08-21T11:53:14.759Z,100886.31
2022-08-21T11:55:51.955Z,100888.94
2022-08-21T11:58:47.644Z,100890.81
2022-08-21T12:01:20.658Z,100893.50
2022-08-21T12:04:06.478Z,100885.53
2022-08-21T12:06:39.218Z,100888.84
2022-08-21T12:09:28.180Z,100877.13
2022-08-21T12:12:06.457Z,100881.44
2022-08-21T12:14:48.281Z,100880.47
2022-08-21T12:17:25.588Z,100888.31
2022-08-21T12:19:59.698Z,100879.47
2022-08-21T12:22:41.702Z,100871.44
2022-08-21T12:25:11.972Z,100870.44
2022-08-21T12:27:52.769Z,100876.78
2022-08-21T12:30:34.800Z,100876.78
2022-08-21T12:33:05.079Z,100876.88
2022-08-21T12:35:40.218Z,100875.22
2022-08-21T12:38:16.909Z,100871.63
2022-08-21T12:40:48.793Z,100862.78
2022-08-21T12:43:22.013Z,100872.59
2022-08-21T12:45:51.939Z,100867.41
2022-08-21T12:48:34.836Z,100866.34
2022-08-21T12:51:11.733Z,100863.63
2022-08-21T12:53:48.094Z,100869.75
2022-08-21T12:56:17.403Z,100867.06
2022-08-21T12:58:49.174Z,100865.28
2022-08-21T13:01:41.876Z,100872.34
2022-08-21T13:04:14.231Z,100864.19
2022-08-21T13:06:42.934Z,100856.22
2022-08-21T13:09:12.782Z,100852.69
2022-08-21T13:11:41.763Z,100860.72
2022-08-21T13:14:15.203Z,100858.13
2022-08-21T13:16:44.002Z,100859.22
2022-08-21T13:19:13.111Z,100861.00
2022-08-21T13:21:42.566Z,100863.66
2022-08-21T13:24:41.391Z,100851.28
2022-08-21T13:27:17.994Z,100852.34
2022-08-21T13:29:44.443Z,100854.09
2022-08-21T13:32:24.888Z,100845.03
2022-08-21T13:34:54.322Z,100849.63
2022-08-21T13:37:22.812Z,100844.16
2022-08-21T13:39:51.947Z,100835.94
2022-08-21T13:42:18.811Z,100834.84
2022-08-21T13:44:47.718Z,100840.81
2022-08-21T13:47:17.142Z,100831.00
2022-08-21T13:49:46.522Z,100830.91
2022-08-21T13:52:22.268Z,100829.00
2022-08-21T13:54:58.925Z,100821.63
2022-08-21T13:57:29.766Z,100820.63
2022-08-21T14:00:15.036Z,100827.06
2022-08-21T14:02:43.306Z,100826.13
2022-08-21T14:05:20.183Z,100830.59
2022-08-21T14:07:46.735Z,100828.91
2022-08-21T14:10:18.775Z,100824.38
2022-08-21T14:12:49.353Z,100827.84
2022-08-21T14:15:18.583Z,100829.59
2022-08-21T14:17:45.662Z,100826.06
2022-08-21T14:20:27.470Z,100827.69
2022-08-21T14:22:53.956Z,100839.06
2022-08-21T14:25:20.286Z,100827.34
2022-08-21T14:27:55.776Z,100831.72
2022-08-21T14:30:28.724Z,100823.44
2022-08-21T14:32:55.517Z,100820.50
2022-08-21T14:35:23.645Z,100817.97
2022-08-21T14:37:51.514Z,100816.75
2022-08-21T14:40:18.877Z,100812.06
2022-08-21T14:42:46.227Z,100815.53
2022-08-21T14:45:27.839Z,100808.16
2022-08-21T14:47:54.920Z,100806.31
2022-08-21T14:50:21.488Z,100807.19
2022-08-21T14:52:47.933Z,100805.16
2022-08-21T14:55:17.426Z,100806.03
2022-08-21T14:57:48.674Z,100806.75
2022-08-21T15:00:18.646Z,100808.44
2022-08-21T15:02:45.181Z,100808.56
2022-08-21T15:05:11.880Z,100802.22
2022-08-21T15:07:39.060Z,100796.59
2022-08-21T15:10:06.738Z,100798.28
2022-08-21T15:12:36.519Z,100801.06
2022-08-21T15:15:03.232Z,100801.00
2022-08-21T15:17:29.714Z,100793.19
2022-08-21T15:19:56.248Z,100802.16
2022-08-21T15:22:26.855Z,100794.28
2022-08-21T15:24:54.635Z,100792.41
2022-08-21T15:27:21.099Z,100786.28
2022-08-21T15:29:47.670Z,100789.84
2022-08-21T15:32:23.211Z,100784.84
2022-08-21T15:34:51.350Z,100788.22
2022-08-21T15:37:18.198Z,100788.31
2022-08-21T15:39:48.410Z,100791.81
2022-08-21T15:42:19.389Z,100793.53
2022-08-21T15:44:46.917Z,100789.09
2022-08-21T15:47:16.592Z,100791.69
2022-08-21T15:49:45.984Z,100784.50
2022-08-21T15:52:14.550Z,100798.63
2022-08-21T15:54:40.982Z,100800.44
2022-08-21T15:57:07.437Z,100800.25
2022-08-21T15:59:43.690Z,100787.75
2022-08-21T16:02:15.061Z,100793.03
2022-08-21T16:04:41.686Z,100790.13
2022-08-21T16:07:09.784Z,100800.84
2022-08-21T16:09:36.391Z,100807.22
2022-08-21T16:12:05.452Z,100796.25
2022-08-21T16:14:32.767Z,100796.06
2022-08-21T16:16:59.354Z,100790.88
2022-08-21T16:19:28.269Z,100796.88
2022-08-21T16:21:54.776Z,100795.81
2022-08-21T16:24:21.251Z,100792.88
2022-08-21T16:26:57.563Z,100789.81
2022-08-21T16:29:26.289Z,100786.09
2022-08-21T16:31:53.642Z,100798.66
2022-08-21T16:34:22.901Z,100789.28
2022-08-21T16:36:49.338Z,100790.53
2022-08-21T16:39:15.778Z,100785.03
2022-08-21T16:41:42.329Z,100778.09
2022-08-21T16:44:09.785Z,100778.13
2022-08-21T16:46:39.898Z,100772.47
2022-08-21T16:49:07.730Z,100782.72
2022-08-21T16:51:34.306Z,100777.78
2022-08-21T16:54:01.140Z,100767.25
2022-08-21T16:56:27.629Z,100770.81
2022-08-21T16:58:55.129Z,100769.88
2022-08-21T17:01:25.412Z,100772.56
2022-08-21T17:03:52.197Z,100772.56
2022-08-21T17:06:19.817Z,100786.63
2022-08-21T17:08:46.916Z,100779.81
2022-08-21T17:11:36.657Z,100769.09
2022-08-21T17:14:08.045Z,100782.22
2022-08-21T17:16:34.787Z,100786.63
2022-08-21T17:19:01.251Z,100787.50
2022-08-21T17:21:28.684Z,100796.22
2022-08-21T17:23:55.309Z,100798.75
2022-08-21T17:26:21.741Z,100792.31
2022-08-21T17:28:51.861Z,100789.56
2022-08-21T17:31:20.749Z,100797.06
2022-08-21T17:33:53.011Z,100790.94
2022-08-21T17:36:21.216Z,100800.44
2022-08-21T17:38:47.860Z,100791.94
2022-08-21T17:41:14.911Z,100797.97
2022-08-21T17:43:41.840Z,100800.94
2022-08-21T17:46:10.090Z,100794.81
2022-08-21T17:48:36.540Z,100796.63
2022-08-21T17:51:03.808Z,100800.22
2022-08-21T17:53:30.312Z,100800.28
2022-08-21T17:55:56.802Z,100805.25
2022-08-21T17:58:23.281Z,100804.06
2022-08-21T18:00:49.822Z,100804.69
2022-08-21T18:03:19.168Z,100807.19
2022-08-21T18:05:47.507Z,100813.81
2022-08-21T18:08:14.996Z,100814.28
2022-08-21T18:10:44.568Z,100814.00
2022-08-21T18:13:13.318Z,100806.50
2022-08-21T18:15:50.526Z,100822.03
2022-08-21T18:18:17.540Z,100817.09
2022-08-21T18:20:44.050Z,100823.66
2022-08-21T18:23:10.707Z,100827.53
2022-08-21T18:25:37.171Z,100826.94
2022-08-21T18:28:06.282Z,100832.50
2022-08-21T18:30:37.754Z,100828.44
2022-08-21T18:33:04.402Z,100832.25
2022-08-21T18:35:32.648Z,100832.50
2022-08-21T18:37:59.200Z,100826.53
2022-08-21T18:40:25.734Z,100832.13
2022-08-21T18:42:55.486Z,100846.50
2022-08-21T18:45:22.966Z,100839.53
2022-08-21T18:47:52.250Z,100841.56
2022-08-21T18:50:21.485Z,100845.31
2022-08-21T18:53:02.199Z,100844.69
2022-08-21T18:55:39.827Z,100849.41
2022-08-21T18:58:08.632Z,100847.03
2022-08-21T19:00:45.518Z,100849.91
2022-08-21T19:03:20.027Z,100852.75
2022-08-21T19:06:02.884Z,100857.28
2022-08-21T19:08:29.537Z,100851.25
2022-08-21T19:10:58.129Z,100851.38
2022-08-21T19:13:28.264Z,100857.78
2022-08-21T19:15:55.619Z,100857.94
2022-08-21T19:18:28.212Z,100859.81
2022-08-21T19:20:55.923Z,100857.25
2022-08-21T19:23:28.933Z,100866.25
2022-08-21T19:26:00.487Z,100866.34
2022-08-21T19:28:44.844Z,100867.28
2022-08-21T19:31:26.719Z,100865.63
2022-08-21T19:34:01.603Z,100869.22
2022-08-21T19:36:29.059Z,100872.81
2022-08-21T19:38:55.523Z,100871.13
2022-08-21T19:41:26.070Z,100873.94
2022-08-21T19:43:55.860Z,100874.94
2022-08-21T19:46:30.907Z,100872.41
2022-08-21T19:48:57.957Z,100883.09
2022-08-21T19:51:25.393Z,100877.88
2022-08-21T19:53:55.831Z,100880.59
2022-08-21T19:56:26.385Z,100880.69
2022-08-21T19:58:52.904Z,100886.06
2022-08-21T20:01:20.842Z,100894.09
2022-08-21T20:03:53.718Z,100894.16
2022-08-21T20:06:22.013Z,100899.53
2022-08-21T20:08:51.410Z,100892.53
2022-08-21T20:11:24.939Z,100898.78
2022-08-21T20:13:51.459Z,100903.31
2022-08-21T20:16:21.380Z,100905.16
2022-08-21T20:18:48.943Z,100899.91
2022-08-21T20:21:15.514Z,100899.97
2022-08-21T20:23:48.928Z,100894.75
2022-08-21T20:26:15.885Z,100898.38
2022-08-21T20:28:43.028Z,100904.63
2022-08-21T20:31:10.394Z,100910.00
2022-08-21T20:33:37.673Z,100911.81
2022-08-21T20:36:04.354Z,100907.41
2022-08-21T20:38:30.908Z,100903.03
2022-08-21T20:40:57.360Z,100900.44
2022-08-21T20:43:23.949Z,100908.47
2022-08-21T20:45:50.704Z,100902.31
2022-08-21T20:48:29.281Z,100908.47
2022-08-21T20:51:03.017Z,100907.63
2022-08-21T20:53:43.801Z,100899.72
2022-08-21T20:56:15.474Z,100898.84
2022-08-21T20:58:48.033Z,100899.75
2022-08-21T21:01:14.460Z,100900.66
2022-08-21T21:03:45.574Z,100896.25
2022-08-21T21:06:19.064Z,100900.69
2022-08-21T21:08:49.999Z,100903.34
2022-08-21T21:11:31.990Z,100907.75
2022-08-21T21:14:23.408Z,100895.47
2022-08-21T21:16:53.339Z,100908.72
2022-08-21T21:19:36.923Z,100912.34
2022-08-21T21:22:11.211Z,100903.56
2022-08-21T21:24:52.754Z,100907.16
2022-08-21T21:27:42.978Z,100904.59
2022-08-21T21:30:24.677Z,100909.09
2022-08-21T21:32:52.644Z,100912.69
2022-08-21T21:35:32.727Z,100909.22
2022-08-21T21:38:17.525Z,100910.19
2022-08-21T21:40:53.240Z,100920.81
2022-08-21T21:43:25.787Z,100920.00
2022-08-21T21:46:23.018Z,100919.16
2022-08-21T21:48:59.436Z,100917.44
2022-08-21T21:51:55.790Z,100919.28
2022-08-21T21:54:58.905Z,100922.03
2022-08-21T21:57:41.076Z,100921.25
2022-08-21T22:00:20.474Z,100915.16
2022-08-21T22:03:03.896Z,100921.38
2022-08-21T22:05:50.554Z,100919.69
2022-08-21T22:08:39.868Z,100925.84
2022-08-21T22:14:14.626Z,100927.72
2022-08-21T22:16:42.825Z,100924.22
2022-08-21T22:19:24.390Z,100933.91
2022-08-21T22:21:56.812Z,100926.03
2022-08-21T22:24:27.666Z,100926.94
2022-08-21T22:27:07.624Z,100934.03
2022-08-21T22:29:58.174Z,100930.53
2022-08-21T22:32:29.629Z,100927.94
2022-08-21T22:35:23.901Z,100930.59
2022-08-21T22:37:55.786Z,100921.84
2022-08-21T22:40:31.199Z,100926.28
2022-08-21T22:43:07.442Z,100928.06
2022-08-21T22:46:00.157Z,100935.09
2022-08-21T22:48:30.891Z,100930.75
2022-08-21T22:51:04.318Z,100929.03
2022-08-21T22:53:33.594Z,100929.09
2022-08-21T22:56:04.830Z,100931.72
2022-08-21T22:58:40.944Z,100934.38
2022-08-21T23:01:27.344Z,100944.94
2022-08-21T23:03:57.615Z,100931.78
2022-08-21T23:06:41.549Z,100929.13
2022-08-21T23:09:19.259Z,100931.78
2022-08-21T23:11:50.682Z,100930.06
2022-08-21T23:14:17.534Z,100933.59
2022-08-21T23:16:55.229Z,100930.03
2022-08-21T23:19:30.901Z,100931.81
2022-08-21T23:22:28.754Z,100934.50
2022-08-21T23:25:17.323Z,100935.34
2022-08-21T23:27:56.071Z,100934.50
2022-08-21T23:30:58.166Z,100941.56
2022-08-21T23:33:34.550Z,100933.63
2022-08-21T23:36:32.798Z,100930.13
2022-08-21T23:39:40.332Z,100931.84
2022-08-21T23:42:26.045Z,100928.34
2022-08-21T23:45:17.361Z,100931.00
2022-08-21T23:47:55.137Z,100927.47
2022-08-21T23:50:46.924Z,100931.88
2022-08-21T23:53:27.335Z,100929.25
2022-08-21T23:56:09.006Z,100936.25
2022-08-21T23:58:59.927Z,100931.88
